Time;durP1;ratioP1;P1;durP2;ratioP2;P2;SDS_P1;SDS_P2;PMS_P1;PMS_P2;Temp;Humidity;BMP_temperature;BMP_pressure;BME280_temperature;BME280_humidity;BME280_pressure;Samples;Min_cycle;Max_cycle;Signal;HPM_P1;HPM_P2
2021/11/27 00:01:56;;;;;;;5.20;2.00;;;;;;;;;;5038398;28;20071;-85
2021/11/27 00:04:21;;;;;;;5.07;2.05;;;;;;;;;;5057935;28;20760;-80
2021/11/27 00:06:47;;;;;;;5.45;2.00;;;;;;;;;;5036659;28;20037;-80
2021/11/27 00:09:12;;;;;;;5.05;2.38;;;;;;;;;;5036904;28;20048;-83
2021/11/27 00:11:39;;;;;;;4.03;2.30;;;;;;;;;;5037917;28;20476;-86
2021/11/27 00:14:06;;;;;;;5.25;2.20;;;;;;;;;;5033316;28;20017;-83
2021/11/27 00:16:33;;;;;;;5.50;2.22;;;;;;;;;;5043431;28;20396;-83
2021/11/27 00:18:59;;;;;;;5.25;1.77;;;;;;;;;;5035382;28;20476;-81
2021/11/27 00:21:24;;;;;;;4.78;1.60;;;;;;;;;;5029989;28;20091;-80
2021/11/27 00:23:52;;;;;;;5.30;1.38;;;;;;;;;;5050566;28;20031;-86
2021/11/27 00:26:19;;;;;;;4.03;1.40;;;;;;;;;;5041002;28;20043;-82
2021/11/27 00:28:46;;;;;;;3.17;1.05;;;;;;;;;;5035686;28;20498;-81
2021/11/27 00:31:16;;;;;;;3.35;0.98;;;;;;;;;;5055681;28;20100;-82
2021/11/27 00:33:43;;;;;;;4.43;1.00;;;;;;;;;;5040056;28;20040;-82
2021/11/27 00:36:09;;;;;;;1.75;0.50;;;;;;;;;;5043144;28;20032;-86
2021/11/27 00:38:35;;;;;;;3.50;0.50;;;;;;;;;;5055487;28;20029;-82
2021/11/27 00:41:02;;;;;;;2.13;0.57;;;;;;;;;;5022439;28;20018;-83
2021/11/27 00:43:28;;;;;;;2.50;0.50;;;;;;;;;;5034552;28;20474;-81
2021/11/27 00:45:53;;;;;;;2.95;0.68;;;;;;;;;;5036693;28;20121;-81
2021/11/27 00:48:19;;;;;;;3.50;0.60;;;;;;;;;;5036319;28;20028;-86
2021/11/27 00:50:52;;;;;;;4.97;1.00;;;;;;;;;;5031677;28;20029;-86
2021/11/27 00:53:18;;;;;;;2.50;0.45;;;;;;;;;;5037384;28;20028;-81
2021/11/27 00:55:44;;;;;;;4.20;0.73;;;;;;;;;;5035769;28;20079;-83
2021/11/27 00:58:10;;;;;;;2.50;0.55;;;;;;;;;;5037320;28;20112;-81
2021/11/27 01:00:44;;;;;;;3.72;0.55;;;;;;;;;;5033528;28;20024;-81
2021/11/27 01:03:12;;;;;;;2.90;0.50;;;;;;;;;;5024490;28;20067;-82
2021/11/27 01:05:38;;;;;;;1.60;0.40;;;;;;;;;;5041622;28;20037;-81
2021/11/27 01:08:05;;;;;;;4.05;0.60;;;;;;;;;;5032012;28;20071;-83
2021/11/27 01:10:37;;;;;;;3.47;0.57;;;;;;;;;;5032183;28;20231;-83
2021/11/27 01:13:04;;;;;;;4.25;0.50;;;;;;;;;;5028653;28;20455;-81
2021/11/27 01:15:31;;;;;;;4.55;0.40;;;;;;;;;;5034635;28;20044;-82
2021/11/27 01:17:57;;;;;;;4.50;0.73;;;;;;;;;;5036011;28;20028;-83
2021/11/27 01:20:29;;;;;;;4.75;0.63;;;;;;;;;;5033441;28;20056;-84
2021/11/27 01:22:55;;;;;;;2.25;0.55;;;;;;;;;;5026255;28;20045;-81
2021/11/27 01:25:21;;;;;;;0.85;0.43;;;;;;;;;;5028685;28;20037;-87
2021/11/27 01:27:47;;;;;;;3.00;0.60;;;;;;;;;;5053821;28;20392;-82
2021/11/27 01:30:13;;;;;;;1.67;0.50;;;;;;;;;;5033606;28;20043;-84
2021/11/27 01:32:40;;;;;;;3.47;0.75;;;;;;;;;;5034898;28;20033;-83
2021/11/27 01:35:06;;;;;;;2.95;0.90;;;;;;;;;;5032828;28;20027;-81
2021/11/27 01:37:33;;;;;;;3.60;0.75;;;;;;;;;;5036099;28;20029;-82
2021/11/27 01:40:00;;;;;;;2.80;0.60;;;;;;;;;;5052895;28;20017;-81
2021/11/27 01:42:26;;;;;;;2.80;0.80;;;;;;;;;;5034339;28;20029;-81
2021/11/27 01:44:51;;;;;;;4.68;1.10;;;;;;;;;;5034970;28;20434;-83
2021/11/27 01:47:17;;;;;;;3.65;0.93;;;;;;;;;;5041211;28;20441;-85
2021/11/27 01:49:42;;;;;;;2.58;0.70;;;;;;;;;;5031349;28;20029;-87
2021/11/27 01:52:08;;;;;;;3.47;1.00;;;;;;;;;;5028605;28;20025;-82
2021/11/27 01:54:34;;;;;;;6.30;1.40;;;;;;;;;;5032310;28;20198;-87
2021/11/27 01:57:03;;;;;;;4.05;1.50;;;;;;;;;;5030718;28;20547;-83
2021/11/27 01:59:30;;;;;;;6.10;2.10;;;;;;;;;;5035869;28;20029;-82
2021/11/27 02:01:56;;;;;;;5.68;2.15;;;;;;;;;;5031459;28;20033;-87
2021/11/27 02:04:23;;;;;;;5.60;2.67;;;;;;;;;;5026254;28;20031;-81
2021/11/27 02:06:48;;;;;;;6.40;2.72;;;;;;;;;;5029185;28;20091;-81
2021/11/27 02:09:20;;;;;;;7.00;2.55;;;;;;;;;;5035543;28;20040;-81
2021/11/27 02:11:46;;;;;;;4.25;1.65;;;;;;;;;;5031571;28;20021;-86
2021/11/27 02:14:12;;;;;;;5.18;1.80;;;;;;;;;;5032221;28;20396;-86
2021/11/27 02:16:39;;;;;;;3.88;1.75;;;;;;;;;;5029270;28;20056;-81
2021/11/27 02:19:06;;;;;;;2.50;1.30;;;;;;;;;;5032087;28;20025;-82
2021/11/27 02:21:31;;;;;;;2.25;1.10;;;;;;;;;;5043372;28;20107;-84
2021/11/27 02:23:57;;;;;;;2.35;1.00;;;;;;;;;;5051363;28;20504;-82
2021/11/27 02:26:27;;;;;;;2.72;1.13;;;;;;;;;;5049836;28;20032;-84
2021/11/27 02:28:56;;;;;;;2.55;0.80;;;;;;;;;;5047798;28;20025;-86
2021/11/27 02:31:24;;;;;;;2.80;0.90;;;;;;;;;;5031899;28;20053;-87
2021/11/27 02:33:50;;;;;;;2.63;0.90;;;;;;;;;;5033403;28;20077;-83
2021/11/27 02:36:15;;;;;;;3.58;0.85;;;;;;;;;;5046239;28;20433;-81
2021/11/27 02:38:41;;;;;;;3.20;0.77;;;;;;;;;;5028728;28;20159;-84
2021/11/27 02:41:07;;;;;;;3.17;0.80;;;;;;;;;;5035290;28;20060;-87
2021/11/27 02:43:32;;;;;;;2.05;0.60;;;;;;;;;;5034942;28;20032;-84
2021/11/27 02:45:58;;;;;;;2.85;0.73;;;;;;;;;;5050131;28;20594;-81
2021/11/27 02:48:23;;;;;;;1.27;0.63;;;;;;;;;;5037421;28;20032;-81
2021/11/27 02:50:49;;;;;;;1.35;0.60;;;;;;;;;;5031366;28;20033;-81
2021/11/27 02:53:15;;;;;;;3.53;0.60;;;;;;;;;;5036145;28;20509;-81
2021/11/27 02:55:41;;;;;;;4.50;0.70;;;;;;;;;;5034931;28;20025;-81
2021/11/27 02:58:07;;;;;;;2.85;0.68;;;;;;;;;;5028717;28;20506;-84
2021/11/27 03:00:33;;;;;;;2.97;0.80;;;;;;;;;;5034282;28;20039;-81
2021/11/27 03:02:58;;;;;;;0.68;0.40;;;;;;;;;;5046936;28;20049;-82
2021/11/27 03:05:23;;;;;;;0.93;0.45;;;;;;;;;;5051225;28;20051;-81
2021/11/27 03:07:49;;;;;;;2.85;0.40;;;;;;;;;;5033645;28;20057;-81
2021/11/27 03:10:16;;;;;;;1.70;0.50;;;;;;;;;;5052127;28;20056;-87
2021/11/27 03:12:44;;;;;;;0.65;0.40;;;;;;;;;;5050559;28;20043;-84
2021/11/27 03:15:12;;;;;;;0.93;0.30;;;;;;;;;;5035019;28;20025;-87
2021/11/27 03:17:38;;;;;;;3.28;0.40;;;;;;;;;;5030737;28;20025;-81
2021/11/27 03:20:08;;;;;;;0.95;0.40;;;;;;;;;;5031566;28;20039;-81
2021/11/27 03:22:34;;;;;;;2.85;0.40;;;;;;;;;;5030548;28;20388;-84
2021/11/27 03:24:59;;;;;;;1.50;0.40;;;;;;;;;;5030359;28;20029;-82
2021/11/27 03:27:25;;;;;;;1.20;0.50;;;;;;;;;;5028992;28;20029;-86
2021/11/27 03:29:50;;;;;;;4.22;0.60;;;;;;;;;;5033442;28;20480;-84
2021/11/27 03:32:17;;;;;;;1.00;0.50;;;;;;;;;;5033392;28;20056;-86
2021/11/27 03:34:43;;;;;;;2.70;0.68;;;;;;;;;;5044498;28;20037;-87
2021/11/27 03:37:09;;;;;;;4.53;0.50;;;;;;;;;;5024937;28;20056;-82
2021/11/27 03:39:36;;;;;;;1.15;0.47;;;;;;;;;;5023956;28;20033;-84
2021/11/27 03:42:05;;;;;;;2.55;0.63;;;;;;;;;;5048930;28;20044;-81
2021/11/27 03:44:31;;;;;;;3.90;1.00;;;;;;;;;;5018187;28;20032;-83
2021/11/27 03:46:59;;;;;;;3.72;1.17;;;;;;;;;;5029929;28;20025;-87
2021/11/27 03:49:25;;;;;;;2.05;1.10;;;;;;;;;;5052358;28;20021;-84
2021/11/27 03:51:51;;;;;;;3.85;1.20;;;;;;;;;;5026829;28;20400;-84
2021/11/27 03:54:17;;;;;;;2.45;1.15;;;;;;;;;;5029689;28;20051;-86
2021/11/27 03:56:42;;;;;;;3.85;1.70;;;;;;;;;;5043299;28;20083;-87
2021/11/27 03:59:08;;;;;;;3.22;1.50;;;;;;;;;;5033160;28;20539;-86
2021/11/27 04:01:34;;;;;;;3.20;1.40;;;;;;;;;;5032170;28;20064;-87
2021/11/27 04:04:03;;;;;;;2.30;1.55;;;;;;;;;;5037488;28;20115;-84
2021/11/27 04:06:29;;;;;;;5.57;2.00;;;;;;;;;;5033778;28;20032;-83
2021/11/27 04:08:56;;;;;;;3.22;2.00;;;;;;;;;;5033920;28;20048;-82
2021/11/27 04:11:22;;;;;;;3.75;2.20;;;;;;;;;;5028896;28;20378;-83
2021/11/27 04:13:47;;;;;;;7.10;2.30;;;;;;;;;;5022822;28;20519;-82
2021/11/27 04:16:13;;;;;;;3.72;2.15;;;;;;;;;;5044253;28;20028;-87
2021/11/27 04:18:38;;;;;;;4.68;2.60;;;;;;;;;;5051380;28;20083;-82
2021/11/27 04:21:06;;;;;;;6.18;2.88;;;;;;;;;;5033639;28;20024;-82
2021/11/27 04:23:32;;;;;;;4.57;2.88;;;;;;;;;;5028711;28;20025;-81
2021/11/27 04:25:57;;;;;;;4.70;2.92;;;;;;;;;;5037800;28;20102;-81
2021/11/27 04:28:23;;;;;;;6.10;3.25;;;;;;;;;;5026686;28;20044;-87
2021/11/27 04:30:48;;;;;;;5.18;3.10;;;;;;;;;;5037058;28;20392;-82
2021/11/27 04:33:14;;;;;;;5.80;3.50;;;;;;;;;;5027157;28;20037;-82
2021/11/27 04:35:40;;;;;;;6.60;3.83;;;;;;;;;;5029829;28;20052;-84
2021/11/27 04:38:06;;;;;;;7.10;4.10;;;;;;;;;;5033680;28;20067;-87
2021/11/27 04:40:33;;;;;;;7.38;4.20;;;;;;;;;;5055809;28;20106;-87
2021/11/27 04:43:01;;;;;;;6.80;4.30;;;;;;;;;;5041220;28;20040;-81
2021/11/27 04:45:26;;;;;;;6.10;3.80;;;;;;;;;;5036992;28;20519;-87
2021/11/27 04:47:51;;;;;;;5.53;3.60;;;;;;;;;;5031119;28;20052;-86
2021/11/27 04:50:18;;;;;;;6.40;3.95;;;;;;;;;;5028014;28;20025;-82
2021/11/27 04:52:44;;;;;;;6.47;3.75;;;;;;;;;;5036755;28;20029;-82
2021/11/27 04:55:10;;;;;;;6.05;3.63;;;;;;;;;;5033258;28;20028;-84
2021/11/27 04:57:36;;;;;;;6.28;4.38;;;;;;;;;;5028530;28;20095;-82
2021/11/27 05:00:06;;;;;;;9.77;6.25;;;;;;;;;;5035224;28;20024;-87
2021/11/27 05:02:31;;;;;;;10.13;6.75;;;;;;;;;;5055065;28;20037;-87
2021/11/27 05:04:57;;;;;;;12.00;8.35;;;;;;;;;;5034359;28;20025;-81
2021/11/27 05:07:22;;;;;;;10.60;7.35;;;;;;;;;;5036963;28;20083;-87
2021/11/27 05:09:47;;;;;;;13.00;8.30;;;;;;;;;;5030388;28;20057;-81
2021/11/27 05:12:13;;;;;;;14.35;9.25;;;;;;;;;;5046104;28;20427;-84
2021/11/27 05:14:42;;;;;;;11.80;8.48;;;;;;;;;;5033959;28;20053;-81
2021/11/27 05:17:08;;;;;;;13.13;9.35;;;;;;;;;;5037031;28;20031;-81
2021/11/27 05:19:34;;;;;;;13.63;9.30;;;;;;;;;;5044167;28;20056;-87
2021/11/27 05:22:00;;;;;;;15.68;10.50;;;;;;;;;;5058457;28;20029;-81
2021/11/27 05:24:25;;;;;;;13.13;9.77;;;;;;;;;;5033608;28;20029;-84
2021/11/27 05:26:51;;;;;;;15.07;10.57;;;;;;;;;;5034309;28;20027;-82
2021/11/27 05:29:16;;;;;;;14.52;10.25;;;;;;;;;;5032550;28;20029;-84
2021/11/27 05:31:42;;;;;;;16.17;11.45;;;;;;;;;;5032374;28;20419;-87
2021/11/27 05:36:39;;;;;;;15.52;10.95;;;;;;;;;;5046159;28;20063;-81
2021/11/27 05:39:05;;;;;;;15.68;10.85;;;;;;;;;;5032238;28;22628;-84
2021/11/27 05:41:30;;;;;;;17.20;11.98;;;;;;;;;;5052887;28;20037;-81
2021/11/27 05:43:57;;;;;;;16.48;11.52;;;;;;;;;;5045750;28;20029;-83
2021/11/27 05:46:22;;;;;;;17.70;11.75;;;;;;;;;;5023284;28;20455;-86
2021/11/27 05:48:48;;;;;;;19.30;12.57;;;;;;;;;;5031958;28;20124;-82
2021/11/27 05:51:13;;;;;;;17.33;11.88;;;;;;;;;;5039689;28;20032;-81
2021/11/27 05:53:39;;;;;;;21.38;12.93;;;;;;;;;;5037409;28;20021;-84
2021/11/27 05:56:05;;;;;;;19.67;12.50;;;;;;;;;;5046620;28;20017;-81
2021/11/27 05:58:30;;;;;;;18.55;12.77;;;;;;;;;;5050258;28;20055;-81
2021/11/27 06:00:56;;;;;;;21.85;13.48;;;;;;;;;;5024560;28;20021;-83
2021/11/27 06:03:22;;;;;;;20.40;12.88;;;;;;;;;;5031787;28;20124;-87
2021/11/27 06:05:47;;;;;;;19.17;12.73;;;;;;;;;;5025382;28;20060;-81
2021/11/27 06:08:12;;;;;;;19.55;12.32;;;;;;;;;;5032656;28;20444;-86
2021/11/27 06:10:38;;;;;;;22.48;13.45;;;;;;;;;;5027296;28;20029;-81
2021/11/27 06:13:04;;;;;;;19.85;12.65;;;;;;;;;;5035758;28;20472;-81
2021/11/27 06:15:30;;;;;;;22.30;14.23;;;;;;;;;;5030953;28;20399;-81
2021/11/27 06:17:55;;;;;;;20.42;13.38;;;;;;;;;;5022897;28;20025;-86
2021/11/27 06:20:21;;;;;;;22.35;13.98;;;;;;;;;;5054124;28;20033;-86
2021/11/27 06:22:47;;;;;;;21.60;13.93;;;;;;;;;;5033556;28;20045;-81
2021/11/27 06:25:13;;;;;;;22.73;14.30;;;;;;;;;;5050419;28;20023;-83
2021/11/27 06:27:39;;;;;;;22.27;13.38;;;;;;;;;;5051982;28;20029;-83
2021/11/27 06:30:06;;;;;;;21.42;13.48;;;;;;;;;;5034003;28;20025;-81
2021/11/27 06:32:32;;;;;;;20.65;12.77;;;;;;;;;;5035941;28;20166;-86
2021/11/27 06:34:58;;;;;;;21.77;13.65;;;;;;;;;;5027718;28;20036;-82
2021/11/27 06:37:23;;;;;;;22.67;13.95;;;;;;;;;;5033507;28;20025;-83
2021/11/27 06:39:49;;;;;;;21.63;12.90;;;;;;;;;;5052589;28;20099;-81
2021/11/27 06:42:15;;;;;;;20.15;12.88;;;;;;;;;;5026490;28;20392;-87
2021/11/27 06:44:47;;;;;;;22.35;13.43;;;;;;;;;;5031407;28;20365;-83
2021/11/27 06:47:17;;;;;;;22.75;14.02;;;;;;;;;;5034197;28;20055;-80
2021/11/27 06:49:44;;;;;;;22.05;12.73;;;;;;;;;;5033300;28;20024;-81
2021/11/27 06:52:12;;;;;;;21.27;12.48;;;;;;;;;;5034583;28;20072;-83
2021/11/27 06:54:38;;;;;;;22.20;12.85;;;;;;;;;;5052640;28;20032;-87
2021/11/27 06:57:03;;;;;;;20.50;12.63;;;;;;;;;;5027672;28;20036;-82
2021/11/27 06:59:29;;;;;;;16.65;10.18;;;;;;;;;;5029281;28;20079;-81
2021/11/27 07:01:54;;;;;;;15.73;9.32;;;;;;;;;;5028557;28;20435;-81
2021/11/27 07:04:20;;;;;;;13.98;8.20;;;;;;;;;;5033778;28;20056;-80
2021/11/27 07:06:45;;;;;;;13.82;8.15;;;;;;;;;;5029904;28;20028;-86
2021/11/27 07:09:11;;;;;;;13.65;7.85;;;;;;;;;;5033972;28;20078;-81
2021/11/27 07:11:36;;;;;;;11.70;7.13;;;;;;;;;;5026292;28;20472;-86
2021/11/27 07:14:03;;;;;;;10.40;6.13;;;;;;;;;;5031105;28;20435;-81
2021/11/27 07:16:28;;;;;;;10.15;5.60;;;;;;;;;;5025751;28;20056;-82
2021/11/27 07:18:54;;;;;;;8.40;5.18;;;;;;;;;;5034737;28;20029;-81
2021/11/27 07:21:19;;;;;;;8.32;5.10;;;;;;;;;;5028388;28;20029;-80
2021/11/27 07:23:44;;;;;;;8.35;4.25;;;;;;;;;;5026835;28;20472;-83
2021/11/27 07:26:10;;;;;;;6.95;4.35;;;;;;;;;;5033769;28;20028;-81
2021/11/27 07:28:35;;;;;;;8.77;4.57;;;;;;;;;;5034527;28;20021;-81
2021/11/27 07:31:02;;;;;;;7.68;4.13;;;;;;;;;;5032818;28;20021;-83
2021/11/27 07:33:27;;;;;;;18.90;9.43;;;;;;;;;;5030928;28;20035;-81
2021/11/27 07:35:53;;;;;;;32.47;15.02;;;;;;;;;;5031774;28;20505;-80
2021/11/27 07:38:18;;;;;;;34.17;15.43;;;;;;;;;;5034026;28;20083;-83
2021/11/27 07:40:44;;;;;;;35.42;16.05;;;;;;;;;;5034105;28;20396;-81
2021/11/27 07:43:09;;;;;;;34.40;15.90;;;;;;;;;;5033081;28;20131;-81
2021/11/27 07:45:36;;;;;;;34.20;15.38;;;;;;;;;;5019544;28;20044;-80
2021/11/27 07:48:02;;;;;;;31.23;15.52;;;;;;;;;;5025467;28;20074;-86
2021/11/27 07:50:27;;;;;;;36.03;15.80;;;;;;;;;;5027192;28;20021;-81
2021/11/27 07:52:53;;;;;;;34.05;16.48;;;;;;;;;;5029920;28;20033;-86
2021/11/27 07:55:18;;;;;;;38.38;17.23;;;;;;;;;;5035397;28;20109;-82
2021/11/27 07:57:43;;;;;;;35.95;16.67;;;;;;;;;;5037664;28;20036;-81
2021/11/27 08:00:09;;;;;;;39.38;18.00;;;;;;;;;;5031497;28;20112;-81
2021/11/27 08:02:36;;;;;;;38.60;18.00;;;;;;;;;;5035099;28;20024;-80
2021/11/27 08:05:02;;;;;;;43.00;17.90;;;;;;;;;;5038297;28;20029;-83
2021/11/27 08:07:28;;;;;;;40.45;18.83;;;;;;;;;;5035751;28;20060;-81
2021/11/27 08:09:53;;;;;;;41.67;18.95;;;;;;;;;;5038185;28;20052;-81
2021/11/27 08:12:18;;;;;;;42.55;18.27;;;;;;;;;;5026395;28;20029;-82
2021/11/27 08:14:44;;;;;;;38.42;17.58;;;;;;;;;;5022885;28;20035;-85
2021/11/27 08:17:09;;;;;;;42.22;18.35;;;;;;;;;;5028339;28;20117;-80
2021/11/27 08:19:34;;;;;;;40.85;18.67;;;;;;;;;;5031411;28;20455;-82
2021/11/27 08:22:00;;;;;;;42.08;17.77;;;;;;;;;;5054431;28;20074;-86
2021/11/27 08:24:26;;;;;;;42.17;18.42;;;;;;;;;;5037670;28;20025;-82
2021/11/27 08:26:52;;;;;;;44.00;18.85;;;;;;;;;;5028638;28;20027;-85
2021/11/27 08:29:18;;;;;;;43.38;18.63;;;;;;;;;;5032085;28;20020;-82
2021/11/27 08:31:46;;;;;;;40.67;18.00;;;;;;;;;;5023775;28;20499;-82
2021/11/27 08:34:12;;;;;;;43.15;17.88;;;;;;;;;;5051791;28;20025;-82
2021/11/27 08:36:38;;;;;;;43.38;18.15;;;;;;;;;;5031037;28;20503;-80
2021/11/27 08:39:03;;;;;;;42.28;17.80;;;;;;;;;;5030909;28;20439;-82
2021/11/27 08:41:29;;;;;;;39.55;17.60;;;;;;;;;;5036017;28;20017;-81
2021/11/27 08:43:54;;;;;;;42.80;19.17;;;;;;;;;;5041536;28;20119;-81
2021/11/27 08:46:20;;;;;;;48.85;20.88;;;;;;;;;;5043374;28;20068;-80
2021/11/27 08:48:45;;;;;;;44.97;18.63;;;;;;;;;;5030238;28;20017;-85
2021/11/27 08:51:12;;;;;;;40.67;19.45;;;;;;;;;;5036940;28;20027;-80
2021/11/27 08:53:39;;;;;;;43.53;19.98;;;;;;;;;;5037441;28;20384;-79
2021/11/27 08:56:07;;;;;;;39.40;18.95;;;;;;;;;;5031188;28;20032;-81
2021/11/27 08:58:35;;;;;;;41.35;19.23;;;;;;;;;;5054777;28;20059;-79
2021/11/27 09:01:00;;;;;;;39.22;18.15;;;;;;;;;;5031038;28;20091;-80
2021/11/27 09:03:26;;;;;;;48.47;19.35;;;;;;;;;;5039861;28;20029;-80
2021/11/27 09:05:51;;;;;;;39.92;18.52;;;;;;;;;;5028976;28;20024;-80
2021/11/27 09:08:17;;;;;;;41.90;18.17;;;;;;;;;;5034986;28;20029;-80
2021/11/27 09:10:43;;;;;;;43.40;20.48;;;;;;;;;;5035846;28;20115;-81
2021/11/27 09:13:09;;;;;;;47.92;21.02;;;;;;;;;;5051460;28;20091;-85
2021/11/27 09:15:34;;;;;;;38.35;19.00;;;;;;;;;;5032992;28;20450;-80
2021/11/27 09:18:02;;;;;;;42.85;20.40;;;;;;;;;;5027472;28;20049;-79
2021/11/27 09:20:31;;;;;;;42.78;19.70;;;;;;;;;;5051215;28;20048;-86
2021/11/27 09:22:57;;;;;;;40.38;18.48;;;;;;;;;;5026528;28;20080;-80
2021/11/27 09:25:25;;;;;;;42.80;18.77;;;;;;;;;;5035874;28;20021;-85
2021/11/27 09:27:50;;;;;;;43.00;18.05;;;;;;;;;;5033599;28;20056;-80
2021/11/27 09:30:29;;;;;;;38.50;18.85;;;;;;;;;;5042928;28;20071;-80
2021/11/27 09:32:58;;;;;;;40.38;18.40;;;;;;;;;;5027467;28;20028;-85
2021/11/27 09:35:26;;;;;;;39.05;18.13;;;;;;;;;;5042366;28;20099;-85
2021/11/27 09:37:58;;;;;;;37.85;17.88;;;;;;;;;;5026139;28;20120;-84
2021/11/27 09:40:28;;;;;;;37.42;18.23;;;;;;;;;;5030313;28;20027;-80
2021/11/27 09:42:57;;;;;;;39.80;20.80;;;;;;;;;;5029855;28;20029;-80
2021/11/27 09:45:28;;;;;;;43.60;20.15;;;;;;;;;;5028657;28;20025;-85
2021/11/27 09:48:02;;;;;;;41.25;20.58;;;;;;;;;;5030995;28;20035;-80
2021/11/27 09:50:32;;;;;;;36.92;18.98;;;;;;;;;;5036058;28;20025;-82
2021/11/27 09:53:01;;;;;;;33.25;18.40;;;;;;;;;;5034364;28;20029;-82
2021/11/27 09:55:30;;;;;;;35.13;18.02;;;;;;;;;;5032110;28;20044;-81
2021/11/27 09:58:03;;;;;;;35.40;17.45;;;;;;;;;;5033847;28;20032;-81
2021/11/27 10:00:32;;;;;;;33.70;17.52;;;;;;;;;;5030526;28;20021;-82
2021/11/27 10:03:01;;;;;;;32.90;16.77;;;;;;;;;;5025469;28;20029;-80
2021/11/27 10:05:33;;;;;;;31.58;15.05;;;;;;;;;;5031244;28;20037;-82
2021/11/27 10:08:02;;;;;;;30.23;14.43;;;;;;;;;;5068347;23;20042;-82
2021/11/27 10:10:31;;;;;;;28.90;14.23;;;;;;;;;;4975463;28;20042;-81
2021/11/27 10:13:03;;;;;;;26.42;12.88;;;;;;;;;;4973930;28;20033;-79
2021/11/27 10:15:34;;;;;;;24.38;12.68;;;;;;;;;;4979376;28;20042;-85
2021/11/27 10:18:35;;;;;;;28.17;13.18;;;;;;;;;;4986578;28;20038;-80
2021/11/27 10:21:38;;;;;;;22.88;11.73;;;;;;;;;;4973788;28;20042;-80
2021/11/27 10:24:35;;;;;;;26.45;10.70;;;;;;;;;;4986956;28;20030;-80
2021/11/27 10:27:37;;;;;;;24.55;10.80;;;;;;;;;;4971313;28;20104;-80
2021/11/27 10:30:11;;;;;;;22.33;11.05;;;;;;;;;;4978220;28;20389;-80
2021/11/27 10:32:40;;;;;;;25.05;11.98;;;;;;;;;;4992985;28;20038;-80
2021/11/27 10:38:07;;;;;;;25.90;12.23;;;;;;;;;;4972596;28;20038;-80
2021/11/27 10:40:38;;;;;;;25.23;12.25;;;;;;;;;;4975315;28;20053;-81
2021/11/27 10:43:10;;;;;;;22.98;11.40;;;;;;;;;;4975465;28;20481;-82
2021/11/27 10:45:41;;;;;;;25.15;11.55;;;;;;;;;;4976900;28;20032;-80
2021/11/27 10:48:37;;;;;;;23.17;10.45;;;;;;;;;;4993390;28;20018;-81
2021/11/27 10:51:40;;;;;;;24.83;10.45;;;;;;;;;;4972356;28;20030;-82
2021/11/27 10:54:09;;;;;;;22.75;10.38;;;;;;;;;;4972259;28;20396;-81
2021/11/27 10:56:43;;;;;;;25.92;9.68;;;;;;;;;;4976338;28;20481;-81
2021/11/27 10:59:10;;;;;;;21.70;9.63;;;;;;;;;;4976308;28;20030;-79
2021/11/27 11:08:13;;;;;;;22.38;10.18;;;;;;;;;;4906480;29;20039;-82
2021/11/27 11:11:46;;;;;;;22.35;9.18;;;;;;;;;;4973151;28;20082;-85
2021/11/27 11:14:43;;;;;;;24.77;9.57;;;;;;;;;;4966199;28;20530;-80
2021/11/27 11:17:14;;;;;;;27.92;9.63;;;;;;;;;;4992987;28;20026;-81
2021/11/27 11:19:42;;;;;;;19.60;8.07;;;;;;;;;;4982369;28;20034;-80
2021/11/27 11:22:20;;;;;;;19.42;7.63;;;;;;;;;;4968178;28;20038;-80
2021/11/27 11:24:46;;;;;;;29.27;8.60;;;;;;;;;;4970760;28;20390;-80
2021/11/27 11:27:27;;;;;;;21.00;7.25;;;;;;;;;;4972296;28;20041;-86
2021/11/27 11:29:52;;;;;;;17.50;6.80;;;;;;;;;;4989387;28;20098;-82
2021/11/27 11:32:23;;;;;;;14.82;6.07;;;;;;;;;;4978986;28;20194;-81
2021/11/27 11:34:52;;;;;;;13.75;6.35;;;;;;;;;;4990490;28;20053;-85
2021/11/27 11:37:18;;;;;;;16.65;6.22;;;;;;;;;;4974070;28;20114;-81
2021/11/27 11:39:43;;;;;;;17.13;6.53;;;;;;;;;;4995473;28;20157;-80
2021/11/27 11:42:09;;;;;;;19.08;6.88;;;;;;;;;;4993685;28;20521;-81
2021/11/27 11:44:36;;;;;;;20.88;7.35;;;;;;;;;;4969772;28;20057;-85
2021/11/27 11:47:03;;;;;;;15.25;6.60;;;;;;;;;;4969329;28;20023;-82
2021/11/27 11:49:29;;;;;;;15.07;6.50;;;;;;;;;;4991178;28;20154;-84
2021/11/27 11:52:03;;;;;;;15.15;6.25;;;;;;;;;;4995431;28;20076;-80
2021/11/27 11:54:30;;;;;;;17.13;6.68;;;;;;;;;;4969320;28;20387;-81
2021/11/27 11:57:04;;;;;;;20.35;7.55;;;;;;;;;;4979577;28;20108;-85
2021/11/27 11:59:32;;;;;;;15.40;6.45;;;;;;;;;;4970468;28;20026;-80
2021/11/27 12:02:24;;;;;;;14.25;7.03;;;;;;;;;;4977151;28;20037;-82
2021/11/27 12:05:05;;;;;;;15.02;6.80;;;;;;;;;;4968123;28;20034;-79
2021/11/27 12:07:47;;;;;;;17.63;7.22;;;;;;;;;;4975268;28;20034;-81
2021/11/27 12:10:23;;;;;;;14.80;8.23;;;;;;;;;;4997091;28;20046;-80
2021/11/27 12:13:10;;;;;;;23.05;9.52;;;;;;;;;;5014956;28;20077;-86
2021/11/27 12:15:36;;;;;;;19.08;8.90;;;;;;;;;;5018931;28;20029;-87
2021/11/27 12:18:02;;;;;;;18.88;9.10;;;;;;;;;;5013240;28;20167;-80
2021/11/27 12:20:47;;;;;;;15.38;6.68;;;;;;;;;;5008397;28;20108;-85
2021/11/27 12:23:42;;;;;;;17.00;6.57;;;;;;;;;;5015747;28;20060;-81
2021/11/27 12:26:08;;;;;;;15.65;6.30;;;;;;;;;;5007990;28;20029;-81
2021/11/27 12:28:38;;;;;;;12.90;6.55;;;;;;;;;;5015870;28;20080;-81
2021/11/27 12:31:07;;;;;;;17.98;6.90;;;;;;;;;;5009221;28;20428;-86
2021/11/27 12:34:00;;;;;;;13.27;6.75;;;;;;;;;;5008819;28;20025;-84
2021/11/27 12:36:30;;;;;;;19.63;6.75;;;;;;;;;;5008392;28;20034;-85
2021/11/27 12:39:15;;;;;;;12.95;6.57;;;;;;;;;;5007528;28;20037;-80
2021/11/27 12:41:42;;;;;;;19.40;6.72;;;;;;;;;;5013767;28;20511;-86
2021/11/27 12:44:16;;;;;;;16.58;6.88;;;;;;;;;;5013370;28;20075;-82
2021/11/27 12:46:48;;;;;;;17.92;7.68;;;;;;;;;;5013536;28;20044;-82
2021/11/27 12:49:34;;;;;;;15.50;6.85;;;;;;;;;;5011265;28;20436;-81
2021/11/27 12:52:15;;;;;;;18.95;6.65;;;;;;;;;;5031795;28;20095;-82
2021/11/27 12:54:54;;;;;;;15.55;7.35;;;;;;;;;;5016361;28;20056;-85
2021/11/27 12:57:36;;;;;;;25.17;7.63;;;;;;;;;;5010928;28;20032;-86
2021/11/27 13:00:12;;;;;;;19.47;8.10;;;;;;;;;;5019010;28;20022;-81
2021/11/27 13:03:04;;;;;;;16.33;7.72;;;;;;;;;;5015525;28;20017;-86
2021/11/27 13:05:41;;;;;;;16.50;6.53;;;;;;;;;;5024348;28;20037;-84
2021/11/27 13:08:08;;;;;;;19.67;8.00;;;;;;;;;;5033428;28;20032;-80
2021/11/27 13:10:46;;;;;;;18.02;7.70;;;;;;;;;;5006454;28;20063;-86
2021/11/27 13:13:23;;;;;;;15.98;7.90;;;;;;;;;;5007692;28;20029;-86
2021/11/27 13:15:51;;;;;;;18.13;7.22;;;;;;;;;;5011810;28;20025;-83
2021/11/27 13:18:24;;;;;;;15.52;7.55;;;;;;;;;;5010170;28;20035;-81
2021/11/27 13:20:59;;;;;;;16.48;7.35;;;;;;;;;;5033450;28;20037;-81
2021/11/27 13:23:27;;;;;;;15.68;7.53;;;;;;;;;;5002385;28;20083;-81
2021/11/27 13:25:56;;;;;;;17.63;7.22;;;;;;;;;;5006455;28;20036;-83
2021/11/27 13:28:24;;;;;;;17.65;7.10;;;;;;;;;;5033380;28;20056;-80
2021/11/27 13:30:51;;;;;;;14.93;5.97;;;;;;;;;;5031062;28;20029;-82
2021/11/27 13:33:16;;;;;;;13.20;7.50;;;;;;;;;;5015223;28;20033;-82
2021/11/27 13:35:42;;;;;;;14.30;7.47;;;;;;;;;;5014295;28;20052;-80
2021/11/27 13:38:08;;;;;;;17.77;8.10;;;;;;;;;;5010781;28;20544;-81
2021/11/27 13:40:37;;;;;;;15.15;7.20;;;;;;;;;;5015591;28;20052;-83
2021/11/27 13:43:10;;;;;;;20.45;8.07;;;;;;;;;;5015139;28;20075;-80
2021/11/27 13:45:36;;;;;;;;;;;;;;;;;;5015200;28;20072;-81
2021/11/27 13:48:05;;;;;;;15.75;6.75;;;;;;;;;;5030300;28;19956;-84
2021/11/27 13:50:32;;;;;;;15.65;6.65;;;;;;;;;;5016126;28;20029;-85
2021/11/27 13:52:58;;;;;;;16.05;6.53;;;;;;;;;;5011210;28;20071;-85
2021/11/27 13:55:30;;;;;;;14.02;5.93;;;;;;;;;;5003913;28;20038;-84
2021/11/27 13:58:01;;;;;;;16.05;6.18;;;;;;;;;;5014697;28;20068;-84
2021/11/27 14:00:29;;;;;;;15.15;6.47;;;;;;;;;;5013600;28;20037;-81
2021/11/27 14:03:01;;;;;;;11.48;6.10;;;;;;;;;;5014512;28;20662;-87
2021/11/27 14:05:33;;;;;;;16.08;6.70;;;;;;;;;;5013780;28;20401;-81
2021/11/27 14:08:18;;;;;;;13.20;6.50;;;;;;;;;;5012982;28;20025;-82
2021/11/27 14:10:58;;;;;;;14.90;6.50;;;;;;;;;;5004862;28;20049;-82
2021/11/27 14:13:23;;;;;;;25.05;6.88;;;;;;;;;;5007069;28;20144;-81
2021/11/27 14:15:49;;;;;;;14.70;6.18;;;;;;;;;;5012644;28;20108;-82
2021/11/27 14:18:17;;;;;;;13.48;5.80;;;;;;;;;;5009944;28;20037;-86
2021/11/27 14:21:10;;;;;;;18.02;7.93;;;;;;;;;;5028927;28;20500;-82
2021/11/27 14:23:57;;;;;;;14.30;7.77;;;;;;;;;;5024556;28;20047;-82
2021/11/27 14:26:26;;;;;;;18.00;7.60;;;;;;;;;;5013562;28;20678;-87
2021/11/27 14:28:53;;;;;;;19.27;9.73;;;;;;;;;;5036488;28;20021;-81
2021/11/27 14:31:29;;;;;;;26.95;11.38;;;;;;;;;;5013512;28;20025;-85
2021/11/27 14:33:54;;;;;;;20.88;10.15;;;;;;;;;;5017061;28;20036;-82
2021/11/27 14:36:21;;;;;;;18.77;10.27;;;;;;;;;;5003817;28;20037;-84
2021/11/27 14:38:57;;;;;;;22.35;10.90;;;;;;;;;;5016354;28;20029;-81
2021/11/27 14:41:31;;;;;;;16.70;10.13;;;;;;;;;;5005704;28;20033;-82
2021/11/27 14:44:15;;;;;;;16.15;10.18;;;;;;;;;;5000303;28;20036;-85
2021/11/27 14:46:47;;;;;;;22.08;11.90;;;;;;;;;;5016556;28;20048;-86
2021/11/27 14:49:47;;;;;;;27.02;12.73;;;;;;;;;;5021698;28;20036;-84
2021/11/27 14:52:20;;;;;;;21.75;11.52;;;;;;;;;;5012079;28;20041;-85
2021/11/27 14:55:31;;;;;;;;;;;;;;;;;;;;;